createdAt,value
2017-11-28T00:00:34.253Z,91.71
2017-11-28T00:02:29.696Z,91.89
2017-11-28T00:03:29.626Z,90.85
2017-11-28T00:05:28.075Z,91.14
2017-11-28T00:06:27.600Z,91.24
2017-11-28T00:08:26.009Z,90.19
2017-11-28T00:09:25.495Z,90.57
2017-11-28T00:11:21.448Z,90.47
2017-11-28T00:12:21.926Z,90.38
2017-11-28T00:14:20.378Z,91.24
2017-11-28T00:15:19.347Z,91.33
2017-11-28T00:17:17.312Z,90.85
2017-11-28T00:18:17.279Z,90.47
2017-11-28T00:20:13.266Z,90.76
2017-11-28T00:21:13.206Z,90.90
2017-11-28T00:23:11.169Z,91.42
2017-11-28T00:24:11.129Z,91.42
2017-11-28T00:26:09.039Z,91.61
2017-11-28T00:27:09.038Z,91.09
2017-11-28T00:29:04.957Z,91.04
2017-11-28T00:30:04.962Z,91.24
2017-11-28T00:32:00.972Z,91.24
2017-11-28T00:33:00.906Z,91.24
2017-11-28T00:34:56.832Z,91.42
2017-11-28T00:35:56.854Z,91.33
2017-11-28T00:37:55.307Z,91.14
2017-11-28T00:38:54.774Z,91.04
2017-11-28T00:40:52.731Z,90.47
2017-11-28T00:41:52.698Z,90.76
2017-11-28T00:43:50.748Z,90.95
2017-11-28T00:44:51.680Z,90.76
2017-11-28T00:46:46.703Z,90.85
2017-11-28T00:47:47.210Z,91.52
2017-11-28T00:49:44.560Z,90.66
2017-11-28T00:50:42.654Z,90.28
2017-11-28T00:52:38.626Z,90.47
2017-11-28T00:53:39.121Z,90.38
2017-11-28T00:55:36.514Z,90.57
2017-11-28T00:56:37.020Z,90.28
2017-11-28T00:58:34.432Z,91.14
2017-11-28T00:59:34.405Z,90.57
2017-11-28T01:01:33.864Z,90.57
2017-11-28T01:02:32.887Z,90.38
2017-11-28T01:04:30.414Z,90.38
2017-11-28T01:05:31.305Z,90.95
2017-11-28T01:07:28.420Z,91.24
2017-11-28T01:08:28.414Z,91.52
2017-11-28T01:10:24.391Z,90.95
2017-11-28T01:11:24.864Z,91.56
2017-11-28T01:13:20.790Z,91.71
2017-11-28T01:14:20.263Z,91.80
2017-11-28T01:16:18.737Z,91.71
2017-11-28T01:17:18.192Z,91.89
2017-11-28T01:19:16.123Z,91.80
2017-11-28T01:20:16.196Z,91.71
2017-11-28T01:22:12.577Z,91.89
2017-11-28T01:23:12.060Z,91.61
2017-11-28T01:25:10.012Z,91.80
2017-11-28T01:26:09.981Z,91.80
2017-11-28T01:28:07.973Z,91.52
2017-11-28T01:29:08.928Z,91.80
2017-11-28T01:31:03.903Z,91.52
2017-11-28T01:32:03.846Z,91.66
2017-11-28T01:33:59.818Z,91.85
2017-11-28T01:35:00.310Z,91.85
2017-11-28T01:36:57.772Z,91.94
2017-11-28T01:37:57.735Z,92.42
2017-11-28T01:39:56.215Z,92.14
2017-11-28T01:40:55.661Z,91.94
2017-11-28T01:42:54.635Z,92.33
2017-11-28T01:43:53.561Z,91.56
2017-11-28T01:45:51.514Z,91.80
2017-11-28T01:46:51.483Z,91.61
2017-11-28T01:48:48.932Z,92.18
2017-11-28T01:49:47.431Z,91.61
2017-11-28T01:51:46.368Z,91.61
2017-11-28T01:52:45.356Z,91.61
2017-11-28T01:54:41.802Z,91.89
2017-11-28T01:55:41.278Z,91.89
2017-11-28T01:57:40.228Z,92.47
2017-11-28T01:58:39.395Z,92.47
2017-11-28T02:00:37.261Z,92.28
2017-11-28T02:01:35.763Z,92.75
2017-11-28T02:03:31.246Z,92.56
2017-11-28T02:04:31.752Z,92.47
2017-11-28T02:06:29.099Z,92.47
2017-11-28T02:07:29.115Z,92.66
2017-11-28T02:09:25.567Z,92.47
2017-11-28T02:10:25.994Z,92.75
2017-11-28T02:12:22.995Z,92.66
2017-11-28T02:13:22.954Z,92.85
2017-11-28T02:15:19.436Z,92.66
2017-11-28T02:16:19.406Z,92.66
2017-11-28T02:18:15.836Z,92.75
2017-11-28T02:19:14.815Z,92.66
2017-11-28T02:21:10.736Z,92.47
2017-11-28T02:22:11.270Z,92.56
2017-11-28T02:24:06.694Z,92.28
2017-11-28T02:25:07.204Z,92.56
2017-11-28T02:27:02.678Z,91.99
2017-11-28T02:28:02.599Z,92.28
2017-11-28T02:29:58.554Z,92.28
2017-11-28T02:30:59.062Z,92.47
2017-11-28T02:32:56.572Z,92.66
2017-11-28T02:33:57.507Z,92.47
2017-11-28T02:35:54.487Z,92.66
2017-11-28T02:36:54.527Z,92.28
2017-11-28T02:38:50.448Z,91.89
2017-11-28T02:39:50.431Z,92.09
2017-11-28T02:41:48.893Z,91.42
2017-11-28T02:42:48.516Z,92.28
2017-11-28T02:44:46.956Z,91.52
2017-11-28T02:45:46.565Z,91.52
2017-11-28T02:47:42.475Z,91.52
2017-11-28T02:48:42.459Z,91.80
2017-11-28T02:50:38.419Z,91.71
2017-11-28T02:51:38.423Z,92.37
2017-11-28T02:53:34.852Z,91.71
2017-11-28T02:54:34.320Z,91.80
2017-11-28T02:56:30.294Z,91.71
2017-11-28T02:57:30.762Z,91.99
2017-11-28T02:59:27.215Z,91.52
2017-11-28T03:00:26.183Z,91.04
2017-11-28T03:02:22.635Z,91.33
2017-11-28T03:03:22.073Z,91.24
2017-11-28T03:05:20.029Z,90.85
2017-11-28T03:06:20.005Z,90.85
2017-11-28T03:08:17.933Z,90.76
2017-11-28T03:09:17.949Z,90.28
2017-11-28T03:11:15.874Z,90.66
2017-11-28T03:12:15.874Z,90.57
2017-11-28T03:14:13.839Z,90.47
2017-11-28T03:15:14.302Z,90.38
2017-11-28T03:17:11.716Z,90.00
2017-11-28T03:18:11.708Z,89.90
2017-11-28T03:20:09.642Z,89.90
2017-11-28T03:21:09.619Z,90.00
2017-11-28T03:23:08.596Z,89.72
2017-11-28T03:24:07.661Z,90.00
2017-11-28T03:26:04.531Z,89.62
2017-11-28T03:27:04.100Z,90.09
2017-11-28T03:28:59.520Z,89.90
2017-11-28T03:29:59.527Z,89.81
2017-11-28T03:31:56.973Z,89.81
2017-11-28T03:32:55.997Z,89.81
2017-11-28T03:34:51.403Z,89.14
2017-11-28T03:35:51.385Z,89.14
2017-11-28T03:37:49.406Z,89.33
2017-11-28T03:38:49.400Z,88.95
2017-11-28T03:40:47.349Z,88.76
2017-11-28T03:41:47.320Z,89.43
2017-11-28T03:43:43.801Z,89.43
2017-11-28T03:44:43.285Z,89.53
2017-11-28T03:46:39.246Z,90.09
2017-11-28T03:47:39.733Z,89.72
2017-11-28T03:49:36.182Z,90.85
2017-11-28T03:50:35.167Z,90.57
2017-11-28T03:52:31.643Z,90.76
2017-11-28T03:53:31.613Z,91.04
2017-11-28T03:55:28.024Z,91.24
2017-11-28T03:56:27.514Z,91.24
2017-11-28T03:58:25.935Z,91.04
2017-11-28T03:59:24.917Z,90.57
2017-11-28T04:01:23.864Z,90.47
2017-11-28T04:02:22.945Z,90.19
2017-11-28T04:04:21.898Z,90.09
2017-11-28T04:05:20.904Z,89.72
2017-11-28T04:07:16.868Z,89.53
2017-11-28T04:08:16.821Z,89.72
2017-11-28T04:10:14.822Z,89.72
2017-11-28T04:11:14.767Z,89.53
2017-11-28T04:13:13.212Z,89.24
2017-11-28T04:14:12.712Z,89.43
2017-11-28T04:16:10.153Z,90.00
2017-11-28T04:17:08.687Z,89.53
2017-11-28T04:19:06.735Z,89.81
2017-11-28T04:20:06.728Z,89.90
2017-11-28T04:22:03.670Z,89.24
2017-11-28T04:23:02.649Z,89.14
2017-11-28T04:24:59.116Z,89.90
2017-11-28T04:25:58.569Z,89.33
2017-11-28T04:27:55.531Z,89.90
2017-11-28T04:28:54.538Z,89.62
2017-11-28T04:30:50.526Z,90.00
2017-11-28T04:31:50.512Z,90.09
2017-11-28T04:33:46.434Z,90.00
2017-11-28T04:34:46.429Z,89.72
2017-11-28T04:36:42.383Z,89.05
2017-11-28T04:37:42.375Z,89.33
2017-11-28T04:39:38.303Z,89.14
2017-11-28T04:40:38.797Z,89.33
2017-11-28T04:42:35.256Z,89.62
2017-11-28T04:43:34.747Z,89.33
2017-11-28T04:45:32.173Z,89.43
2017-11-28T04:46:32.643Z,88.76
2017-11-28T04:48:28.082Z,89.14
2017-11-28T04:49:28.068Z,89.14
2017-11-28T04:51:26.024Z,89.24
2017-11-28T04:52:26.513Z,89.90
2017-11-28T04:54:21.935Z,89.14
2017-11-28T04:55:22.457Z,89.05
2017-11-28T04:57:18.414Z,89.14
2017-11-28T04:58:18.398Z,88.95
2017-11-28T05:00:13.830Z,89.24
2017-11-28T05:01:15.338Z,88.95
2017-11-28T05:03:10.283Z,90.00
2017-11-28T05:04:09.737Z,89.81
2017-11-28T05:06:07.764Z,90.00
2017-11-28T05:07:07.758Z,89.90
2017-11-28T05:09:03.699Z,90.09
2017-11-28T05:10:03.726Z,90.38
2017-11-28T05:12:01.757Z,90.28
2017-11-28T05:13:02.654Z,90.19
2017-11-28T05:14:57.661Z,90.57
2017-11-28T05:15:57.671Z,90.19
2017-11-28T05:17:53.633Z,89.81
2017-11-28T05:18:53.593Z,90.00
2017-11-28T05:20:49.557Z,90.38
2017-11-28T05:21:50.040Z,90.19
2017-11-28T05:23:46.000Z,90.19
2017-11-28T05:24:45.471Z,89.90
2017-11-28T05:26:41.421Z,90.28
2017-11-28T05:27:41.418Z,90.28
2017-11-28T05:29:38.380Z,89.90
2017-11-28T05:30:37.369Z,90.47
2017-11-28T05:32:35.383Z,90.28
2017-11-28T05:33:35.348Z,89.90
2017-11-28T05:35:33.287Z,88.76
2017-11-28T05:36:33.282Z,88.76
2017-11-28T05:38:29.253Z,88.76
2017-11-28T05:39:29.213Z,88.57
2017-11-28T05:41:25.735Z,88.39
2017-11-28T05:42:25.165Z,88.20
2017-11-28T05:44:21.066Z,88.48
2017-11-28T05:45:21.603Z,88.29
2017-11-28T05:47:18.998Z,88.39
2017-11-28T05:48:18.990Z,88.01
2017-11-28T05:50:17.945Z,88.29
2017-11-28T05:51:17.027Z,88.20
2017-11-28T05:53:13.013Z,88.86
2017-11-28T05:54:13.487Z,88.95
2017-11-28T05:56:08.913Z,89.14
2017-11-28T05:57:09.478Z,89.43
2017-11-28T05:59:04.814Z,89.33
2017-11-28T06:00:04.813Z,90.00
2017-11-28T06:02:02.255Z,90.09
2017-11-28T06:03:01.250Z,90.09
2017-11-28T06:04:57.714Z,89.95
2017-11-28T06:05:56.692Z,89.86
2017-11-28T06:07:52.639Z,89.95
2017-11-28T06:08:52.610Z,89.86
2017-11-28T06:10:51.102Z,89.39
2017-11-28T06:11:50.669Z,89.67
2017-11-28T06:13:58.360Z,89.67
2017-11-28T06:14:54.969Z,90.05
2017-11-28T06:16:44.968Z,90.33
2017-11-28T06:17:44.953Z,89.76
2017-11-28T06:19:41.939Z,89.95
2017-11-28T06:20:40.369Z,90.05
2017-11-28T06:22:33.791Z,89.76
2017-11-28T06:23:33.779Z,90.05
2017-11-28T06:25:30.208Z,90.24
2017-11-28T06:26:29.721Z,89.95
2017-11-28T06:28:25.661Z,89.76
2017-11-28T06:29:25.648Z,89.95
2017-11-28T06:31:22.089Z,89.58
2017-11-28T06:32:21.569Z,89.48
2017-11-28T06:34:17.530Z,89.86
2017-11-28T06:35:18.012Z,90.38
2017-11-28T06:37:14.472Z,89.76
2017-11-28T06:38:14.003Z,89.95
2017-11-28T06:40:09.364Z,90.29
2017-11-28T06:41:09.375Z,89.91
2017-11-28T06:43:05.958Z,90.48
2017-11-28T06:44:05.268Z,90.10
2017-11-28T06:46:01.181Z,90.00
2017-11-28T06:47:01.719Z,90.57
2017-11-28T06:48:57.115Z,90.19
2017-11-28T06:49:57.108Z,90.10
2017-11-28T06:51:55.074Z,90.67
2017-11-28T06:52:55.578Z,90.57
2017-11-28T06:54:53.067Z,91.05
2017-11-28T06:55:53.509Z,90.48
2017-11-28T06:57:50.950Z,91.05
2017-11-28T06:58:50.936Z,91.14
2017-11-28T07:00:47.389Z,90.95
2017-11-28T07:01:46.867Z,91.24
2017-11-28T07:03:42.846Z,90.86
2017-11-28T07:04:42.812Z,90.95
2017-11-28T07:06:39.288Z,91.42
2017-11-28T07:07:38.773Z,91.24
2017-11-28T07:09:35.237Z,91.24
2017-11-28T07:10:34.695Z,91.80
2017-11-28T07:12:30.652Z,91.24
2017-11-28T07:13:30.594Z,91.61
2017-11-28T07:15:28.065Z,91.61
2017-11-28T07:16:28.055Z,91.42
2017-11-28T07:18:22.992Z,91.71
2017-11-28T07:19:22.474Z,91.61
2017-11-28T07:21:18.468Z,91.90
2017-11-28T07:22:18.420Z,91.42
2017-11-28T07:24:14.373Z,90.86
2017-11-28T07:25:14.342Z,90.95
2017-11-28T07:27:10.336Z,91.33
2017-11-28T07:28:11.786Z,91.05
2017-11-28T07:30:06.237Z,91.24
2017-11-28T07:31:06.226Z,91.33
2017-11-28T07:33:02.186Z,91.14
2017-11-28T07:34:02.141Z,90.95
2017-11-28T07:36:00.162Z,91.05
2017-11-28T07:37:00.154Z,91.24
2017-11-28T07:38:56.104Z,91.52
2017-11-28T07:39:56.102Z,90.95
2017-11-28T07:41:51.090Z,91.33
2017-11-28T07:42:51.047Z,91.90
2017-11-28T07:44:46.996Z,91.61
2017-11-28T07:45:46.454Z,91.52
2017-11-28T07:47:42.400Z,91.14
2017-11-28T07:48:42.403Z,91.71
2017-11-28T07:50:35.847Z,91.05
2017-11-28T07:51:35.825Z,91.42
2017-11-28T07:53:30.249Z,91.33
2017-11-28T07:54:30.791Z,91.99
2017-11-28T07:56:26.217Z,91.71
2017-11-28T07:57:26.198Z,91.42
2017-11-28T07:59:19.623Z,91.05
2017-11-28T08:00:20.150Z,90.76
2017-11-28T08:02:15.582Z,91.05
2017-11-28T08:03:15.559Z,90.76
2017-11-28T08:05:09.977Z,91.33
2017-11-28T08:06:09.944Z,90.95
2017-11-28T08:08:05.924Z,91.42
2017-11-28T08:09:05.878Z,90.76
2017-11-28T08:11:01.855Z,90.95
2017-11-28T08:12:01.836Z,91.14
2017-11-28T08:13:58.264Z,90.38
2017-11-28T08:14:58.277Z,90.76
2017-11-28T08:16:53.692Z,90.48
2017-11-28T08:17:54.186Z,91.33
2017-11-28T08:19:49.624Z,90.48
2017-11-28T08:20:49.597Z,90.48
2017-11-28T08:22:45.494Z,90.57
2017-11-28T08:23:45.484Z,90.29
2017-11-28T08:25:41.929Z,90.29
2017-11-28T08:26:41.408Z,89.81
2017-11-28T08:28:37.350Z,89.81
2017-11-28T08:29:37.359Z,89.91
2017-11-28T08:31:33.308Z,89.62
2017-11-28T08:32:33.288Z,88.87
2017-11-28T08:34:29.215Z,89.67
2017-11-28T08:35:29.203Z,89.76
2017-11-28T08:37:25.172Z,89.48
2017-11-28T08:38:25.126Z,89.48
2017-11-28T08:40:21.089Z,89.76
2017-11-28T08:41:22.569Z,89.29
2017-11-28T08:43:17.008Z,89.00
2017-11-28T08:44:16.985Z,88.72
2017-11-28T08:46:13.423Z,88.72
2017-11-28T08:47:13.435Z,88.72
2017-11-28T08:49:11.349Z,88.43
2017-11-28T08:50:10.837Z,88.24
2017-11-28T08:52:06.804Z,87.49
2017-11-28T08:53:07.795Z,87.11
2017-11-28T08:55:02.267Z,87.30
2017-11-28T08:56:01.264Z,87.30
2017-11-28T08:57:57.220Z,87.30
2017-11-28T08:58:57.189Z,86.91
2017-11-28T09:00:53.177Z,86.16
2017-11-28T09:01:53.098Z,86.63
2017-11-28T09:03:47.577Z,86.25
2017-11-28T09:04:48.056Z,85.40
2017-11-28T09:06:43.987Z,85.53
2017-11-28T09:07:43.479Z,85.78
2017-11-28T09:09:39.420Z,85.35
2017-11-28T09:10:39.926Z,85.44
2017-11-28T09:12:34.856Z,85.44
2017-11-28T09:13:33.794Z,85.53
2017-11-28T09:15:30.007Z,85.44
2017-11-28T09:16:29.740Z,85.72
2017-11-28T09:18:26.176Z,84.97
2017-11-28T09:19:25.654Z,85.06
2017-11-28T09:21:20.633Z,84.01
2017-11-28T09:22:20.093Z,84.30
2017-11-28T09:24:16.027Z,84.21
2017-11-28T09:25:16.027Z,84.01
2017-11-28T09:27:11.985Z,84.30
2017-11-28T09:28:11.946Z,83.36
2017-11-28T09:30:09.416Z,83.16
2017-11-28T09:31:08.417Z,83.07
2017-11-28T09:33:03.798Z,82.78
2017-11-28T09:34:03.799Z,82.59
2017-11-28T09:35:59.246Z,82.12
2017-11-28T09:36:58.217Z,81.93
2017-11-28T09:38:54.190Z,81.87
2017-11-28T09:39:54.156Z,82.07
2017-11-28T09:41:49.097Z,82.07
2017-11-28T09:42:48.595Z,82.54
2017-11-28T09:44:45.042Z,82.35
2017-11-28T09:45:44.519Z,82.64
2017-11-28T09:47:39.473Z,82.07
2017-11-28T09:48:38.955Z,81.59
2017-11-28T09:50:35.409Z,81.59
2017-11-28T09:51:35.838Z,81.02
2017-11-28T09:53:30.973Z,81.68
2017-11-28T09:54:31.850Z,81.30
2017-11-28T09:56:26.904Z,81.12
2017-11-28T09:57:26.888Z,81.12
2017-11-28T09:59:23.829Z,81.30
2017-11-28T10:00:22.810Z,81.30
2017-11-28T10:02:18.736Z,80.83
2017-11-28T10:03:19.265Z,79.88
2017-11-28T10:05:14.185Z,79.97
2017-11-28T10:06:13.168Z,79.88
2017-11-28T10:08:09.123Z,80.64
2017-11-28T10:09:09.112Z,79.88
2017-11-28T10:11:07.059Z,79.88
2017-11-28T10:12:05.051Z,79.31
2017-11-28T10:13:59.991Z,79.41
2017-11-28T10:14:58.983Z,78.93
2017-11-28T10:16:54.408Z,78.21
2017-11-28T10:17:54.391Z,78.69
2017-11-28T10:19:50.843Z,79.16
2017-11-28T10:20:50.353Z,78.69
2017-11-28T10:22:46.236Z,78.55
2017-11-28T10:23:46.239Z,78.83
2017-11-28T10:25:43.694Z,78.93
2017-11-28T10:26:42.183Z,78.36
2017-11-28T10:28:36.617Z,79.79
2017-11-28T10:29:35.619Z,79.50
2017-11-28T10:31:32.069Z,79.03
2017-11-28T10:32:31.572Z,78.64
2017-11-28T10:34:28.500Z,79.60
2017-11-28T10:35:27.490Z,79.50
2017-11-28T10:37:24.424Z,79.03
2017-11-28T10:38:23.396Z,78.74
2017-11-28T10:40:19.370Z,78.55
2017-11-28T10:41:19.348Z,78.83
2017-11-28T10:43:15.312Z,78.08
2017-11-28T10:44:15.258Z,78.27
2017-11-28T10:46:09.712Z,78.27
2017-11-28T10:47:09.675Z,78.83
2017-11-28T10:49:06.625Z,77.51
2017-11-28T10:50:06.132Z,77.41
2017-11-28T10:52:01.578Z,77.22
2017-11-28T10:53:01.554Z,76.56
2017-11-28T10:54:59.006Z,77.12
2017-11-28T10:55:57.523Z,76.84
2017-11-28T10:57:53.956Z,77.51
2017-11-28T10:58:52.460Z,77.51
2017-11-28T11:00:48.424Z,77.89
2017-11-28T11:01:47.878Z,77.51
2017-11-28T11:03:42.338Z,77.98
2017-11-28T11:04:42.335Z,77.89
2017-11-28T11:06:36.295Z,77.51
2017-11-28T11:07:35.795Z,77.41
2017-11-28T11:09:31.741Z,77.51
2017-11-28T11:10:31.737Z,77.70
2017-11-28T11:12:27.629Z,77.12
2017-11-28T11:13:27.646Z,77.51
2017-11-28T11:15:22.591Z,76.56
2017-11-28T11:16:22.072Z,76.93
2017-11-28T11:18:19.013Z,76.27
2017-11-28T11:19:17.994Z,76.46
2017-11-28T11:21:13.953Z,76.56
2017-11-28T11:22:13.922Z,75.70
2017-11-28T11:24:08.362Z,75.79
2017-11-28T11:25:08.368Z,75.64
2017-11-28T11:27:05.824Z,75.55
2017-11-28T11:28:04.818Z,75.55
2017-11-28T11:30:00.261Z,75.55
2017-11-28T11:31:00.239Z,75.07
2017-11-28T11:32:58.685Z,75.45
2017-11-28T11:33:56.124Z,73.74
2017-11-28T11:35:53.084Z,74.03
2017-11-28T11:36:52.089Z,73.27
2017-11-28T11:38:48.017Z,73.36
2017-11-28T11:39:48.004Z,73.02
2017-11-28T11:41:43.964Z,73.21
2017-11-28T11:42:43.951Z,73.02
2017-11-28T11:44:40.396Z,73.11
2017-11-28T11:45:39.880Z,72.45
2017-11-28T11:47:36.845Z,72.26
2017-11-28T11:48:35.846Z,72.45
2017-11-28T11:50:31.803Z,72.26
2017-11-28T11:51:31.744Z,71.78
2017-11-28T11:53:28.716Z,71.31
2017-11-28T11:54:27.704Z,71.50
2017-11-28T11:56:24.161Z,71.41
2017-11-28T11:57:23.640Z,70.26
2017-11-28T11:59:20.107Z,70.17
2017-11-28T12:00:19.575Z,69.98
2017-11-28T12:02:16.049Z,69.50
2017-11-28T12:03:15.500Z,69.60
2017-11-28T12:05:11.435Z,70.26
2017-11-28T12:06:11.435Z,70.83
2017-11-28T12:08:07.359Z,70.26
2017-11-28T12:09:07.355Z,70.36
2017-11-28T12:11:03.319Z,70.17
2017-11-28T12:12:03.814Z,70.26
2017-11-28T12:13:59.239Z,69.41
2017-11-28T12:14:59.238Z,68.84
2017-11-28T12:16:55.215Z,68.55
2017-11-28T12:17:55.205Z,69.02
2017-11-28T12:19:51.626Z,68.27
2017-11-28T12:20:51.124Z,68.55
2017-11-28T12:22:47.073Z,69.12
2017-11-28T12:23:47.027Z,69.02
2017-11-28T12:25:42.972Z,67.98
2017-11-28T12:26:42.984Z,67.50
2017-11-28T12:28:38.930Z,67.50
2017-11-28T12:29:38.918Z,68.55
2017-11-28T12:31:35.377Z,67.88
2017-11-28T12:32:34.856Z,66.84
2017-11-28T12:34:34.812Z,67.50
2017-11-28T12:35:32.833Z,66.84
2017-11-28T12:37:29.780Z,66.55
2017-11-28T12:38:28.768Z,65.80
2017-11-28T12:40:24.746Z,66.46
2017-11-28T12:41:25.224Z,67.13
2017-11-28T12:43:19.674Z,67.41
2017-11-28T12:44:19.163Z,66.94
2017-11-28T12:46:15.105Z,66.55
2017-11-28T12:47:15.100Z,66.46
2017-11-28T12:50:11.048Z,66.46
2017-11-28T12:52:07.991Z,67.35
2017-11-28T12:53:07.003Z,66.68
2017-11-28T12:55:00.418Z,65.73
2017-11-28T12:56:00.453Z,65.13
2017-11-28T12:57:54.906Z,65.51
2017-11-28T12:58:56.803Z,65.60
2017-11-28T13:00:50.879Z,65.13
2017-11-28T13:01:50.835Z,65.32
2017-11-28T13:03:48.335Z,65.89
2017-11-28T13:04:46.785Z,66.27
2017-11-28T13:06:43.738Z,65.80
2017-11-28T13:07:42.713Z,66.17
2017-11-28T13:09:39.168Z,66.24
2017-11-28T13:10:40.098Z,66.24
2017-11-28T13:12:35.131Z,66.74
2017-11-28T13:13:35.132Z,67.00
2017-11-28T13:15:29.041Z,67.38
2017-11-28T13:16:29.005Z,67.38
2017-11-28T13:18:22.457Z,67.00
2017-11-28T13:19:22.425Z,66.90
2017-11-28T13:21:17.383Z,67.38
2017-11-28T13:22:17.397Z,67.38
2017-11-28T13:24:12.840Z,66.90
2017-11-28T13:25:11.839Z,66.71
2017-11-28T13:27:07.250Z,65.86
2017-11-28T13:28:07.760Z,65.57
2017-11-28T13:30:03.190Z,64.90
2017-11-28T13:31:03.177Z,64.81
2017-11-28T13:33:01.647Z,65.19
2017-11-28T13:34:01.219Z,65.09
2017-11-28T13:35:57.162Z,63.79
2017-11-28T13:36:57.125Z,64.37
2017-11-28T13:38:50.609Z,63.89
2017-11-28T13:39:50.573Z,63.23
2017-11-28T13:41:46.554Z,63.04
2017-11-28T13:42:46.506Z,62.37
2017-11-28T13:44:42.473Z,63.13
2017-11-28T13:45:42.453Z,61.99
2017-11-28T13:47:44.916Z,61.90
2017-11-28T13:48:47.486Z,61.90
2017-11-28T13:50:39.453Z,62.75
2017-11-28T13:51:39.439Z,62.46
2017-11-28T13:53:35.909Z,62.56
2017-11-28T13:54:35.394Z,62.37
2017-11-28T13:56:31.841Z,61.61
2017-11-28T13:57:31.331Z,62.08
2017-11-28T13:59:27.293Z,62.08
2017-11-28T14:00:27.281Z,61.52
2017-11-28T14:02:24.230Z,61.71
2017-11-28T14:03:23.242Z,61.90
2017-11-28T14:05:19.179Z,62.75
2017-11-28T14:06:19.664Z,62.85
2017-11-28T14:08:15.108Z,62.46
2017-11-28T14:09:15.094Z,62.85
2017-11-28T14:11:11.082Z,62.85
2017-11-28T14:12:11.049Z,63.13
2017-11-28T14:14:07.020Z,63.23
2017-11-28T14:15:07.039Z,63.23
2017-11-28T14:17:07.529Z,63.51
2017-11-28T14:19:59.977Z,63.95
2017-11-28T14:21:00.494Z,63.76
2017-11-28T14:22:56.418Z,64.14
2017-11-28T14:23:55.893Z,64.08
2017-11-28T14:25:50.376Z,64.90
2017-11-28T14:26:51.356Z,65.13
2017-11-28T14:28:43.835Z,63.99
2017-11-28T14:29:43.806Z,64.18
2017-11-28T14:31:40.747Z,64.08
2017-11-28T14:32:40.256Z,64.46
2017-11-28T14:34:37.610Z,64.56
2017-11-28T14:35:35.681Z,64.65
2017-11-28T14:37:31.621Z,64.75
2017-11-28T14:38:32.182Z,64.84
2017-11-28T14:40:27.549Z,65.03
2017-11-28T14:41:25.034Z,64.53
2017-11-28T14:43:21.999Z,64.53
2017-11-28T14:44:20.995Z,64.34
2017-11-28T14:46:15.476Z,64.81
2017-11-28T14:47:15.425Z,64.43
2017-11-28T14:49:11.376Z,64.62
2017-11-28T14:50:11.366Z,63.76
2017-11-28T14:52:07.331Z,64.43
2017-11-28T14:53:05.836Z,64.05
2017-11-28T14:55:01.291Z,64.34
2017-11-28T14:56:00.275Z,63.86
2017-11-28T14:57:56.731Z,64.05
2017-11-28T14:58:56.197Z,64.53
2017-11-28T15:00:52.638Z,64.53
2017-11-28T15:01:52.187Z,64.53
2017-11-28T15:03:46.137Z,64.81
2017-11-28T15:04:45.916Z,64.81
2017-11-28T15:06:42.876Z,64.43
2017-11-28T15:07:41.964Z,64.81
2017-11-28T15:09:42.363Z,65.28
2017-11-28T15:10:39.851Z,64.81
2017-11-28T15:12:35.799Z,64.43
2017-11-28T15:13:36.293Z,64.81
2017-11-28T15:15:31.708Z,64.14
2017-11-28T15:16:31.669Z,64.05
2017-11-28T15:18:26.127Z,64.62
2017-11-28T15:19:26.113Z,64.34
2017-11-28T15:21:22.056Z,64.72
2017-11-28T15:22:22.049Z,64.53
2017-11-28T15:24:16.481Z,64.34
2017-11-28T15:25:16.492Z,63.76
2017-11-28T15:27:12.484Z,64.24
2017-11-28T15:28:12.453Z,63.86
2017-11-28T15:30:09.330Z,63.95
2017-11-28T15:31:08.894Z,64.62
2017-11-28T15:33:04.360Z,64.81
2017-11-28T15:34:02.847Z,64.62
2017-11-28T15:35:58.748Z,65.35
2017-11-28T15:36:58.761Z,65.16
2017-11-28T15:38:55.205Z,65.76
2017-11-28T15:39:54.699Z,65.54
2017-11-28T15:41:50.649Z,66.30
2017-11-28T15:42:50.622Z,65.35
2017-11-28T15:44:46.070Z,66.01
2017-11-28T15:45:45.064Z,66.58
2017-11-28T15:47:41.559Z,66.58
2017-11-28T15:48:41.033Z,66.96
2017-11-28T15:50:35.973Z,67.25
2017-11-28T15:51:34.970Z,67.53
2017-11-28T15:53:28.928Z,67.72
2017-11-28T15:54:29.413Z,68.01
2017-11-28T15:56:24.853Z,67.91
2017-11-28T15:57:24.839Z,67.91
2017-11-28T15:59:20.809Z,68.48
2017-11-28T16:00:20.774Z,68.44
2017-11-28T16:02:16.748Z,68.64
2017-11-28T16:03:16.705Z,69.11
2017-11-28T16:05:13.636Z,68.26
2017-11-28T16:06:13.140Z,68.92
2017-11-28T16:08:07.082Z,68.64
2017-11-28T16:09:07.079Z,68.73
2017-11-28T16:11:02.014Z,69.11
2017-11-28T16:12:02.031Z,68.83
2017-11-28T16:13:57.976Z,68.83
2017-11-28T16:14:55.954Z,68.92
2017-11-28T16:16:54.414Z,68.83
2017-11-28T16:17:54.010Z,68.83
2017-11-28T16:19:49.961Z,68.64
2017-11-28T16:20:49.941Z,68.35
2017-11-28T16:22:44.412Z,68.35
2017-11-28T16:23:44.376Z,68.35
2017-11-28T16:25:38.805Z,67.79
2017-11-28T16:26:39.312Z,67.88
2017-11-28T16:28:34.751Z,67.79
2017-11-28T16:29:34.705Z,67.97
2017-11-28T16:31:30.682Z,68.64
2017-11-28T16:32:32.165Z,68.07
2017-11-28T16:34:27.109Z,69.40
2017-11-28T16:35:26.567Z,69.55
2017-11-28T16:37:21.537Z,69.55
2017-11-28T16:38:21.534Z,69.46
2017-11-28T16:40:16.991Z,70.31
2017-11-28T16:41:16.956Z,69.74
2017-11-28T16:43:12.881Z,69.74
2017-11-28T16:44:12.880Z,69.27
2017-11-28T16:46:08.828Z,68.98
2017-11-28T16:47:08.776Z,69.36
2017-11-28T16:49:04.728Z,69.27
2017-11-28T16:50:04.725Z,69.17
2017-11-28T16:52:01.657Z,68.70
2017-11-28T16:53:00.641Z,69.27
2017-11-28T16:54:56.573Z,70.12
2017-11-28T16:55:57.096Z,69.46
2017-11-28T16:57:53.029Z,69.84
2017-11-28T16:58:52.504Z,69.93
2017-11-28T17:00:48.954Z,70.12
2017-11-28T17:01:48.961Z,70.12
2017-11-28T17:03:46.898Z,70.59
2017-11-28T17:04:44.364Z,70.98
2017-11-28T17:06:40.310Z,72.40
2017-11-28T17:07:40.821Z,71.83
2017-11-28T17:09:36.754Z,73.25
2017-11-28T17:10:36.777Z,74.01
2017-11-28T17:12:31.679Z,74.87
2017-11-28T17:13:30.654Z,74.83
2017-11-28T17:15:24.119Z,75.87
2017-11-28T17:16:24.600Z,76.63
2017-11-28T17:18:20.031Z,76.25
2017-11-28T17:19:20.001Z,76.82
2017-11-28T17:21:15.932Z,76.92
2017-11-28T17:22:15.942Z,77.39
2017-11-28T17:24:11.937Z,77.48
2017-11-28T17:25:12.879Z,78.43
2017-11-28T17:27:09.382Z,78.81
2017-11-28T17:28:07.865Z,78.53
2017-11-28T17:30:07.831Z,78.72
2017-11-28T17:31:02.802Z,78.24
2017-11-28T17:32:56.731Z,78.24
2017-11-28T17:33:56.699Z,78.24
2017-11-28T17:35:52.640Z,78.34
2017-11-28T17:36:52.617Z,78.02
2017-11-28T17:38:48.578Z,78.02
2017-11-28T17:39:49.081Z,77.35
2017-11-28T17:41:47.000Z,77.29
2017-11-28T17:42:44.497Z,77.25
2017-11-28T17:44:37.942Z,76.15
2017-11-28T17:45:37.928Z,75.87
2017-11-28T17:47:35.391Z,74.83
2017-11-28T17:48:33.853Z,74.26
2017-11-28T17:50:29.818Z,73.88
2017-11-28T17:51:29.774Z,73.50
2017-11-28T17:53:25.730Z,73.60
2017-11-28T17:54:25.695Z,73.41
2017-11-28T17:56:20.677Z,73.97
2017-11-28T17:57:20.134Z,73.60
2017-11-28T17:59:18.635Z,73.79
2017-11-28T18:00:18.051Z,73.69
2017-11-28T18:02:11.540Z,74.07
2017-11-28T18:03:12.010Z,74.64
2017-11-28T18:05:07.941Z,74.73
2017-11-28T18:06:07.432Z,74.64
2017-11-28T18:08:00.896Z,75.21
2017-11-28T18:09:00.861Z,76.15
2017-11-28T18:10:56.815Z,76.44
2017-11-28T18:11:56.780Z,76.34
2017-11-28T18:13:53.613Z,76.15
2017-11-28T18:14:53.590Z,76.21
2017-11-28T18:16:48.031Z,76.12
2017-11-28T18:17:49.550Z,76.21
2017-11-28T18:19:42.483Z,76.87
2017-11-28T18:20:42.418Z,76.68
2017-11-28T18:22:36.838Z,76.97
2017-11-28T18:23:36.847Z,77.06
2017-11-28T18:25:33.281Z,76.78
2017-11-28T18:26:31.261Z,76.59
2017-11-28T18:28:26.708Z,77.25
2017-11-28T18:29:25.696Z,77.25
2017-11-28T18:31:23.135Z,77.25
2017-11-28T18:32:22.137Z,77.54
2017-11-28T18:34:17.548Z,77.83
2017-11-28T18:35:17.537Z,77.35
2017-11-28T18:37:13.986Z,77.16
2017-11-28T18:38:13.467Z,77.25
2017-11-28T18:40:09.430Z,77.35
2017-11-28T18:41:09.423Z,77.25
2017-11-28T18:43:06.860Z,77.25
2017-11-28T18:44:05.300Z,76.87
2017-11-28T18:46:05.764Z,76.68
2017-11-28T18:47:06.247Z,76.68
2017-11-28T18:49:01.697Z,77.25
2017-11-28T18:50:01.677Z,77.54
2017-11-28T18:51:57.621Z,77.16
2017-11-28T18:52:59.134Z,77.25
2017-11-28T18:54:53.507Z,77.45
2017-11-28T18:55:54.043Z,77.83